Time;durP1;ratioP1;P1;durP2;ratioP2;P2;SDS_P1;SDS_P2;PMS_P1;PMS_P2;Temp;Humidity;BMP_temperature;BMP_pressure;BME280_temperature;BME280_humidity;BME280_pressure;Samples;Min_cycle;Max_cycle;Signal;HPM_P1;HPM_P2
2021/03/05 00:00:14;;;;;;;16.13;10.13;;;5.40;87.90;;;;;;5039985;28;20473;-71
2021/03/05 00:02:39;;;;;;;16.48;14.25;;;5.40;88.40;;;;;;5052463;28;20018;-68
2021/03/05 00:05:06;;;;;;;32.58;23.88;;;5.40;88.60;;;;;;5051862;28;20070;-68
2021/03/05 00:07:32;;;;;;;74.80;47.78;;;5.30;88.70;;;;;;5052022;28;20565;-68
2021/03/05 00:09:58;;;;;;;17.60;12.15;;;5.30;88.70;;;;;;5052547;28;20092;-70
2021/03/05 00:12:23;;;;;;;18.05;11.70;;;5.20;89.60;;;;;;5043111;28;20108;-71
2021/03/05 00:14:49;;;;;;;86.60;41.70;;;5.20;89.00;;;;;;5032755;28;20060;-68
2021/03/05 00:17:14;;;;;;;17.30;11.70;;;5.10;89.00;;;;;;5032099;28;20117;-68
2021/03/05 00:19:40;;;;;;;18.80;11.63;;;5.10;89.20;;;;;;5014129;28;20040;-68
2021/03/05 00:22:07;;;;;;;15.15;12.20;;;5.00;89.30;;;;;;5032506;28;20108;-67
2021/03/05 00:24:33;;;;;;;16.25;10.23;;;5.00;89.40;;;;;;5032334;28;20021;-70
2021/03/05 00:26:59;;;;;;;18.83;11.85;;;4.90;89.70;;;;;;5035611;28;20128;-69
2021/03/05 00:29:24;;;;;;;18.98;15.38;;;5.00;89.60;;;;;;5036048;28;20504;-68
2021/03/05 00:31:50;;;;;;;18.42;12.32;;;5.00;89.60;;;;;;5035733;28;20049;-68
2021/03/05 00:34:16;;;;;;;53.67;38.60;;;5.00;89.50;;;;;;5035864;28;20064;-70
2021/03/05 00:36:42;;;;;;;16.20;11.13;;;5.00;89.30;;;;;;5018321;28;20032;-66
2021/03/05 00:39:07;;;;;;;16.83;10.70;;;4.90;89.10;;;;;;5035599;28;20030;-68
2021/03/05 00:41:33;;;;;;;17.30;13.80;;;4.90;89.20;;;;;;5044327;28;20061;-66
2021/03/05 00:43:59;;;;;;;16.58;11.93;;;4.90;89.10;;;;;;5055174;28;20051;-68
2021/03/05 00:46:24;;;;;;;14.32;11.30;;;4.90;88.80;;;;;;5052609;28;20128;-71
2021/03/05 00:48:50;;;;;;;18.88;14.35;;;4.90;88.70;;;;;;5055184;28;20028;-69
2021/03/05 00:51:16;;;;;;;17.45;10.85;;;4.90;88.50;;;;;;5055501;28;20040;-68
2021/03/05 00:53:41;;;;;;;13.57;9.80;;;4.90;88.50;;;;;;5037024;28;20040;-66
2021/03/05 00:56:07;;;;;;;13.77;9.75;;;4.80;88.30;;;;;;5055830;28;20051;-69
2021/03/05 00:58:32;;;;;;;17.65;15.35;;;4.80;88.50;;;;;;5055311;28;20037;-68
2021/03/05 01:00:58;;;;;;;17.85;13.32;;;4.70;88.60;;;;;;5055099;28;20017;-68
2021/03/05 01:03:23;;;;;;;14.43;8.45;;;4.60;89.40;;;;;;5055291;28;20051;-68
2021/03/05 01:05:49;;;;;;;13.15;8.88;;;4.40;88.70;;;;;;5055626;28;20104;-70
2021/03/05 01:08:14;;;;;;;14.02;9.52;;;4.30;88.90;;;;;;5054663;28;20049;-68
2021/03/05 01:10:41;;;;;;;11.63;8.90;;;4.20;89.20;;;;;;5055517;28;20021;-69
2021/03/05 01:13:06;;;;;;;11.55;9.50;;;4.20;89.60;;;;;;5055575;28;20028;-68
2021/03/05 01:15:32;;;;;;;22.08;19.70;;;4.10;89.80;;;;;;5054359;28;20024;-70
2021/03/05 01:17:58;;;;;;;12.23;9.20;;;4.00;90.00;;;;;;5055385;28;20035;-69
2021/03/05 01:20:27;;;;;;;67.32;60.03;;;3.90;90.10;;;;;;5052389;28;20043;-68
2021/03/05 01:22:53;;;;;;;14.55;8.95;;;3.90;90.30;;;;;;5021248;28;20017;-67
2021/03/05 01:25:22;;;;;;;12.88;10.77;;;3.70;90.40;;;;;;5055097;28;20025;-67
2021/03/05 01:27:48;;;;;;;13.35;9.63;;;3.70;90.50;;;;;;5055371;28;20079;-69
2021/03/05 01:30:14;;;;;;;12.23;8.43;;;3.60;90.60;;;;;;5036999;28;20017;-66
2021/03/05 01:32:41;;;;;;;24.48;22.23;;;3.50;90.60;;;;;;5055053;28;20496;-69
2021/03/05 01:35:17;;;;;;;16.42;14.52;;;3.50;90.80;;;;;;5054199;28;20049;-70
2021/03/05 01:37:44;;;;;;;14.57;12.70;;;3.50;91.00;;;;;;5054311;28;20100;-68
2021/03/05 01:40:13;;;;;;;57.80;51.72;;;3.40;91.00;;;;;;5054623;28;20032;-70
2021/03/05 01:42:39;;;;;;;20.55;16.05;;;3.40;91.20;;;;;;5054644;28;20025;-67
2021/03/05 01:45:13;;;;;;;13.70;11.43;;;3.30;91.20;;;;;;5054779;28;20426;-69
2021/03/05 01:47:39;;;;;;;14.38;10.25;;;3.20;91.40;;;;;;5054132;28;20041;-69
2021/03/05 01:50:23;;;;;;;13.25;9.32;;;3.20;91.60;;;;;;5036928;28;20116;-69
2021/03/05 01:52:52;;;;;;;13.10;9.85;;;3.10;91.50;;;;;;5054587;28;20040;-68
2021/03/05 01:55:20;;;;;;;15.10;11.00;;;3.00;91.70;;;;;;5053469;28;20117;-67
2021/03/05 01:57:45;;;;;;;11.90;10.20;;;3.00;91.80;;;;;;5054999;28;20032;-68
2021/03/05 02:00:12;;;;;;;13.82;9.63;;;3.00;92.00;;;;;;5054478;28;20408;-68
2021/03/05 02:02:38;;;;;;;64.95;52.80;;;2.90;92.10;;;;;;5053946;28;20025;-68
2021/03/05 02:05:04;;;;;;;14.93;10.75;;;2.90;92.20;;;;;;5054551;28;20032;-68
2021/03/05 02:07:30;;;;;;;31.98;28.88;;;2.80;92.40;;;;;;5053964;28;20055;-68
2021/03/05 02:09:55;;;;;;;39.20;32.95;;;2.70;92.50;;;;;;5053759;28;20017;-68
2021/03/05 02:12:21;;;;;;;18.40;16.00;;;2.60;92.60;;;;;;5054180;28;20481;-69
2021/03/05 02:14:46;;;;;;;45.88;41.00;;;2.60;92.80;;;;;;5054307;28;20043;-67
2021/03/05 02:17:24;;;;;;;69.40;63.05;;;2.60;93.00;;;;;;5053291;28;20054;-68
2021/03/05 02:20:08;;;;;;;21.30;13.45;;;2.50;93.10;;;;;;5054385;28;20040;-69
2021/03/05 02:23:11;;;;;;;41.05;36.78;;;2.50;93.10;;;;;;5053400;28;20021;-69
2021/03/05 02:26:01;;;;;;;16.48;12.82;;;2.50;93.20;;;;;;5053997;28;20067;-68
2021/03/05 02:29:03;;;;;;;21.10;15.77;;;2.50;93.30;;;;;;5053815;28;20063;-67
2021/03/05 02:31:41;;;;;;;61.58;55.72;;;2.50;93.40;;;;;;5035323;28;20078;-66
2021/03/05 02:34:27;;;;;;;21.20;18.90;;;2.40;93.70;;;;;;5037689;28;20546;-69
2021/03/05 02:36:56;;;;;;;21.30;15.85;;;2.40;93.60;;;;;;5053573;28;20032;-70
2021/03/05 02:39:40;;;;;;;26.52;23.98;;;2.40;93.60;;;;;;5053547;28;20132;-68
2021/03/05 02:42:08;;;;;;;18.77;16.67;;;2.30;93.60;;;;;;5053795;28;20029;-66
2021/03/05 02:44:42;;;;;;;23.15;16.02;;;2.30;93.70;;;;;;5035424;28;20110;-68
2021/03/05 02:47:10;;;;;;;25.52;22.52;;;2.30;93.80;;;;;;5053563;28;20048;-69
2021/03/05 02:49:40;;;;;;;20.13;18.00;;;2.30;93.90;;;;;;5052584;28;20104;-69
2021/03/05 02:52:09;;;;;;;17.30;10.55;;;2.20;93.90;;;;;;5052861;28;20029;-69
2021/03/05 02:54:37;;;;;;;20.35;14.48;;;2.20;94.00;;;;;;5053400;28;20397;-69
2021/03/05 02:57:06;;;;;;;64.18;57.42;;;2.20;94.00;;;;;;5053379;28;20121;-68
2021/03/05 02:59:33;;;;;;;18.65;16.52;;;2.20;94.00;;;;;;5034557;28;20108;-68
2021/03/05 03:01:58;;;;;;;16.27;13.70;;;2.10;94.00;;;;;;5053674;28;20047;-70
2021/03/05 03:04:27;;;;;;;19.80;15.73;;;2.10;94.00;;;;;;5053350;28;20485;-69
2021/03/05 03:06:54;;;;;;;41.30;34.92;;;2.10;94.10;;;;;;5052319;28;20404;-69
2021/03/05 03:09:21;;;;;;;30.77;27.63;;;2.00;94.10;;;;;;5035268;28;20032;-68
2021/03/05 03:11:48;;;;;;;74.55;67.18;;;2.10;94.10;;;;;;5052554;28;20036;-69
2021/03/05 03:14:15;;;;;;;25.00;22.42;;;2.00;94.10;;;;;;5052930;28;20025;-68
2021/03/05 03:16:43;;;;;;;51.35;45.80;;;2.00;94.10;;;;;;5053202;28;20103;-70
2021/03/05 03:19:12;;;;;;;20.02;16.45;;;2.00;94.00;;;;;;5034402;28;20067;-66
2021/03/05 03:21:38;;;;;;;32.80;29.52;;;1.90;94.00;;;;;;5053110;28;20029;-68
2021/03/05 03:24:05;;;;;;;16.25;11.63;;;1.90;93.90;;;;;;5053263;28;20016;-67
2021/03/05 03:26:32;;;;;;;40.90;37.45;;;1.90;93.90;;;;;;5051879;28;20115;-70
2021/03/05 03:28:57;;;;;;;23.50;21.20;;;1.90;93.80;;;;;;5054140;28;20397;-69
2021/03/05 03:31:23;;;;;;;36.38;32.60;;;1.80;93.80;;;;;;5034823;28;20062;-70
2021/03/05 03:33:49;;;;;;;14.43;9.73;;;1.80;93.90;;;;;;5052331;28;20098;-67
2021/03/05 03:36:15;;;;;;;81.75;73.82;;;1.80;93.80;;;;;;5052416;28;20032;-69
2021/03/05 03:38:41;;;;;;;20.92;14.82;;;1.80;93.80;;;;;;5052863;28;20024;-70
2021/03/05 03:41:09;;;;;;;29.85;26.73;;;1.70;93.70;;;;;;5052227;28;20017;-69
2021/03/05 03:43:35;;;;;;;20.30;15.18;;;1.70;93.70;;;;;;5052653;28;20381;-68
2021/03/05 03:46:00;;;;;;;31.00;26.45;;;1.70;93.70;;;;;;5052676;28;20029;-70
2021/03/05 03:48:27;;;;;;;81.80;73.68;;;1.70;93.70;;;;;;5051684;28;20032;-68
2021/03/05 03:51:01;;;;;;;46.50;42.05;;;1.70;93.60;;;;;;5052608;28;20055;-71
2021/03/05 03:53:29;;;;;;;23.35;20.30;;;1.60;93.50;;;;;;5052203;28;20124;-68
2021/03/05 03:55:56;;;;;;;21.42;17.75;;;1.60;93.50;;;;;;5051847;28;20028;-68
2021/03/05 03:58:24;;;;;;;27.45;24.83;;;1.60;93.40;;;;;;5052275;28;20478;-68
2021/03/05 04:00:53;;;;;;;28.17;26.00;;;1.60;93.40;;;;;;5052139;28;20059;-67
2021/03/05 04:03:23;;;;;;;28.40;25.67;;;1.60;93.40;;;;;;5052154;28;20428;-69
2021/03/05 04:05:51;;;;;;;35.72;32.25;;;1.60;93.30;;;;;;5052911;28;20025;-70
2021/03/05 04:08:18;;;;;;;43.35;39.25;;;1.50;93.20;;;;;;5051551;28;20064;-70
2021/03/05 04:10:45;;;;;;;16.77;15.20;;;1.50;93.00;;;;;;5052406;28;20440;-69
2021/03/05 04:13:11;;;;;;;29.25;26.30;;;1.40;92.90;;;;;;5052181;28;20078;-70
2021/03/05 04:15:37;;;;;;;24.27;22.30;;;1.40;92.90;;;;;;5051702;28;20497;-68
2021/03/05 04:18:03;;;;;;;20.75;18.63;;;1.40;93.00;;;;;;5052397;28;20032;-68
2021/03/05 04:20:30;;;;;;;20.02;18.20;;;1.40;92.90;;;;;;5052189;28;20512;-69
2021/03/05 04:22:56;;;;;;;28.45;25.60;;;1.40;93.00;;;;;;5051754;28;20024;-70
2021/03/05 04:25:22;;;;;;;60.65;55.05;;;1.30;92.90;;;;;;5051855;28;20040;-68
2021/03/05 04:27:47;;;;;;;51.22;46.13;;;1.30;92.80;;;;;;5034459;28;20033;-69
2021/03/05 04:30:14;;;;;;;78.90;72.43;;;1.30;92.90;;;;;;5033507;28;20104;-69
2021/03/05 04:32:41;;;;;;;92.28;83.03;;;1.30;92.90;;;;;;5036081;28;20029;-68
2021/03/05 04:35:10;;;;;;;83.35;75.70;;;1.30;92.90;;;;;;5052171;28;20021;-70
2021/03/05 04:37:37;;;;;;;42.80;38.58;;;1.20;93.00;;;;;;5051601;28;20473;-71
2021/03/05 04:40:04;;;;;;;61.85;56.13;;;1.20;93.00;;;;;;5052316;28;20481;-70
2021/03/05 04:42:30;;;;;;;50.92;47.22;;;1.20;93.10;;;;;;5034056;28;20161;-69
2021/03/05 04:44:55;;;;;;;34.20;30.73;;;1.20;93.30;;;;;;5051544;28;20025;-68
2021/03/05 04:47:21;;;;;;;37.42;34.47;;;1.10;93.30;;;;;;5051576;28;20029;-70
2021/03/05 04:49:46;;;;;;;44.17;40.08;;;1.10;93.40;;;;;;5052062;28;20018;-71
2021/03/05 04:52:12;;;;;;;44.85;41.15;;;1.10;93.50;;;;;;5051171;28;20028;-70
2021/03/05 04:54:37;;;;;;;73.60;67.40;;;1.10;93.60;;;;;;5052029;28;20048;-71
2021/03/05 04:57:03;;;;;;;23.63;21.35;;;1.10;93.50;;;;;;5051845;28;20385;-68
2021/03/05 04:59:29;;;;;;;40.47;36.92;;;1.10;93.50;;;;;;5051087;28;20029;-69
2021/03/05 05:01:54;;;;;;;32.83;29.35;;;1.10;93.50;;;;;;5052067;28;20107;-69
2021/03/05 05:04:20;;;;;;;33.38;30.42;;;1.10;93.40;;;;;;5032955;28;20554;-67
2021/03/05 05:06:45;;;;;;;31.00;28.40;;;1.10;93.40;;;;;;5051699;28;20039;-66
2021/03/05 05:09:11;;;;;;;28.38;25.42;;;1.00;93.40;;;;;;5051695;28;20017;-67
2021/03/05 05:11:36;;;;;;;62.80;57.03;;;1.00;93.40;;;;;;5051447;28;20021;-66
2021/03/05 05:14:02;;;;;;;37.47;34.10;;;1.00;93.40;;;;;;5055510;28;20021;-68
2021/03/05 05:16:28;;;;;;;35.53;32.88;;;1.00;93.30;;;;;;5037078;28;20013;-67
2021/03/05 05:18:54;;;;;;;102.45;94.55;;;1.00;93.30;;;;;;5054537;28;20440;-69
2021/03/05 05:21:20;;;;;;;35.20;32.53;;;0.90;93.20;;;;;;5055013;28;20477;-69
2021/03/05 05:23:45;;;;;;;23.65;21.40;;;0.90;93.20;;;;;;5055009;28;20055;-70
2021/03/05 05:26:13;;;;;;;15.82;14.10;;;0.90;93.10;;;;;;5036218;28;20036;-69
2021/03/05 05:28:38;;;;;;;25.17;22.90;;;1.00;93.10;;;;;;5055358;28;20032;-70
2021/03/05 05:31:04;;;;;;;26.80;24.77;;;0.90;93.00;;;;;;5055211;28;20029;-68
2021/03/05 05:33:30;;;;;;;46.78;43.67;;;0.90;92.90;;;;;;5054105;28;20100;-69
2021/03/05 05:35:55;;;;;;;31.60;29.15;;;0.90;92.80;;;;;;5054861;28;20107;-71
2021/03/05 05:38:21;;;;;;;32.20;29.50;;;0.90;92.70;;;;;;5037187;28;20071;-68
2021/03/05 05:40:46;;;;;;;36.83;33.65;;;0.90;92.70;;;;;;5054600;28;20024;-72
2021/03/05 05:43:12;;;;;;;21.77;19.83;;;0.80;92.60;;;;;;5054804;28;20416;-70
2021/03/05 05:45:37;;;;;;;43.45;40.25;;;0.80;92.60;;;;;;5054743;28;20054;-69
2021/03/05 05:48:04;;;;;;;39.35;36.53;;;0.80;92.50;;;;;;5054187;28;20094;-71
2021/03/05 05:50:31;;;;;;;47.75;44.38;;;0.80;92.50;;;;;;5054703;28;20471;-68
2021/03/05 05:52:58;;;;;;;25.85;23.88;;;0.80;92.40;;;;;;5054528;28;20126;-70
2021/03/05 05:55:24;;;;;;;51.63;47.10;;;0.80;92.50;;;;;;5053717;28;20182;-68
2021/03/05 05:57:50;;;;;;;28.80;26.25;;;0.80;92.40;;;;;;5054725;28;20016;-69
2021/03/05 06:00:16;;;;;;;25.27;23.02;;;0.80;92.30;;;;;;5036362;28;20021;-69
2021/03/05 06:02:43;;;;;;;66.18;61.15;;;0.80;92.20;;;;;;5036072;28;20023;-69
2021/03/05 06:05:11;;;;;;;19.48;17.80;;;0.80;92.20;;;;;;5054174;28;20029;-68
2021/03/05 06:07:37;;;;;;;33.85;31.15;;;0.80;92.00;;;;;;5053380;28;20036;-69
2021/03/05 06:10:04;;;;;;;22.88;20.85;;;0.80;92.00;;;;;;5054521;28;20025;-70
2021/03/05 06:12:29;;;;;;;23.23;21.48;;;0.80;92.00;;;;;;5051450;28;20052;-70
2021/03/05 06:14:55;;;;;;;28.13;26.00;;;0.80;91.90;;;;;;5043410;28;20056;-71
2021/03/05 06:17:21;;;;;;;24.90;22.80;;;0.80;91.90;;;;;;5054073;28;20561;-69
2021/03/05 06:19:55;;;;;;;15.30;13.85;;;0.80;91.90;;;;;;5037741;28;20378;-68
2021/03/05 06:22:23;;;;;;;18.70;16.40;;;0.80;91.60;;;;;;5015672;28;20477;-69
2021/03/05 06:24:49;;;;;;;28.63;26.38;;;0.80;91.40;;;;;;5034084;28;20053;-70
2021/03/05 06:27:16;;;;;;;22.88;20.60;;;0.80;91.60;;;;;;5016034;28;20037;-67
2021/03/05 06:29:49;;;;;;;37.25;34.58;;;0.90;91.30;;;;;;5015810;28;20056;-70
2021/03/05 06:32:19;;;;;;;33.25;30.40;;;0.90;90.90;;;;;;5052475;28;20547;-67
2021/03/05 06:34:50;;;;;;;84.10;76.90;;;0.80;90.70;;;;;;5053811;28;20057;-69
2021/03/05 06:37:18;;;;;;;20.53;18.70;;;0.80;90.60;;;;;;5052943;28;20066;-70
2021/03/05 06:39:44;;;;;;;31.10;28.40;;;0.90;90.50;;;;;;5054109;28;20303;-67
2021/03/05 06:42:11;;;;;;;11.55;8.45;;;0.80;90.30;;;;;;5053710;28;20021;-69
2021/03/05 06:44:40;;;;;;;54.33;49.25;;;0.80;90.10;;;;;;5053047;28;20067;-67
2021/03/05 06:47:19;;;;;;;14.23;12.05;;;0.90;90.10;;;;;;5053417;28;20065;-70
2021/03/05 06:49:47;;;;;;;31.58;28.95;;;0.90;90.10;;;;;;5053091;28;20471;-70
2021/03/05 06:52:17;;;;;;;14.65;12.55;;;0.90;90.00;;;;;;5048455;28;20026;-69
2021/03/05 06:54:45;;;;;;;61.30;56.65;;;0.90;89.80;;;;;;5034485;28;20762;-71
2021/03/05 06:57:13;;;;;;;65.65;59.97;;;0.90;89.80;;;;;;5028059;28;20489;-69
2021/03/05 06:59:39;;;;;;;47.30;43.25;;;0.90;89.50;;;;;;5052309;28;20021;-70
2021/03/05 07:02:08;;;;;;;18.98;17.30;;;1.00;89.50;;;;;;5051851;28;20048;-70
2021/03/05 07:04:47;;;;;;;40.75;36.85;;;0.90;89.20;;;;;;5045767;28;20107;-68
2021/03/05 07:07:13;;;;;;;107.65;100.03;;;0.90;89.30;;;;;;5052850;28;20472;-70
2021/03/05 07:09:45;;;;;;;16.75;11.70;;;1.00;89.40;;;;;;5053369;28;20025;-70
2021/03/05 07:12:13;;;;;;;47.80;43.97;;;1.00;89.20;;;;;;5052395;28;20111;-69
2021/03/05 07:14:41;;;;;;;74.55;66.82;;;1.00;89.30;;;;;;5053262;28;20027;-70
2021/03/05 07:17:07;;;;;;;11.98;8.70;;;1.00;89.20;;;;;;5052951;28;20450;-70
2021/03/05 07:19:35;;;;;;;119.30;108.65;;;1.10;89.20;;;;;;5052177;28;20035;-70
2021/03/05 07:22:01;;;;;;;35.33;32.88;;;1.10;89.00;;;;;;5053191;28;20029;-70
2021/03/05 07:24:29;;;;;;;26.92;24.05;;;1.10;88.70;;;;;;5052632;28;20037;-68
2021/03/05 07:26:57;;;;;;;29.40;26.73;;;1.20;88.70;;;;;;5052084;28;20464;-70
2021/03/05 07:29:27;;;;;;;30.98;28.27;;;1.20;88.40;;;;;;5052727;28;20364;-69
2021/03/05 07:32:04;;;;;;;40.10;36.95;;;1.30;88.80;;;;;;5053149;28;20466;-69
2021/03/05 07:34:44;;;;;;;21.98;19.75;;;1.30;88.10;;;;;;5051993;28;20025;-69
2021/03/05 07:37:11;;;;;;;20.10;18.17;;;1.30;87.90;;;;;;5052453;28;20021;-69
2021/03/05 07:39:39;;;;;;;103.65;93.75;;;1.40;87.80;;;;;;5052135;28;20075;-68
2021/03/05 07:42:08;;;;;;;35.00;32.05;;;1.40;87.60;;;;;;5052787;28;20428;-67
2021/03/05 07:44:36;;;;;;;52.20;47.60;;;1.40;87.40;;;;;;5034726;28;20076;-70
2021/03/05 07:47:02;;;;;;;10.80;8.65;;;1.40;87.20;;;;;;5051719;28;20029;-68
2021/03/05 07:49:30;;;;;;;12.35;5.63;;;1.40;87.10;;;;;;5052075;28;20099;-69
2021/03/05 07:51:57;;;;;;;16.35;14.75;;;1.50;87.40;;;;;;5052651;28;20025;-69
2021/03/05 07:54:45;;;;;;;72.65;66.47;;;1.60;87.60;;;;;;5042067;28;20069;-68
2021/03/05 07:57:19;;;;;;;18.08;15.45;;;1.60;87.90;;;;;;5069805;28;20057;-68
2021/03/05 07:59:52;;;;;;;98.78;90.45;;;1.60;88.40;;;;;;5052748;28;20086;-70
2021/03/05 08:02:19;;;;;;;9.48;6.13;;;1.70;88.90;;;;;;5037454;28;20029;-68
2021/03/05 08:04:55;;;;;;;41.40;37.92;;;1.80;89.00;;;;;;5032478;28;20430;-69
2021/03/05 08:07:26;;;;;;;32.03;28.77;;;1.90;88.80;;;;;;5031479;28;20552;-68
2021/03/05 08:09:53;;;;;;;18.15;9.10;;;1.90;88.20;;;;;;5032526;28;20060;-68
2021/03/05 08:12:45;;;;;;;14.00;11.40;;;2.00;87.90;;;;;;5054512;28;20035;-67
2021/03/05 08:15:10;;;;;;;28.42;25.58;;;2.00;87.40;;;;;;5071581;28;20041;-67
2021/03/05 08:17:38;;;;;;;8.43;7.10;;;2.10;87.20;;;;;;5072238;28;20482;-66
2021/03/05 08:20:05;;;;;;;18.70;16.70;;;2.20;87.60;;;;;;5072221;28;20028;-66
2021/03/05 08:22:31;;;;;;;8.50;4.30;;;2.20;87.00;;;;;;5071470;28;20021;-69
2021/03/05 08:25:22;;;;;;;14.40;10.20;;;2.30;86.40;;;;;;5070425;28;20024;-68
2021/03/05 08:27:48;;;;;;;33.72;30.40;;;2.40;85.70;;;;;;5035211;28;20080;-67
2021/03/05 08:30:17;;;;;;;11.02;9.95;;;2.50;85.50;;;;;;5034794;28;20825;-69
2021/03/05 08:32:53;;;;;;;16.20;13.57;;;2.60;84.80;;;;;;5042519;28;20014;-69
2021/03/05 08:35:39;;;;;;;67.15;46.45;;;2.70;84.40;;;;;;5031361;28;20021;-68
2021/03/05 08:38:06;;;;;;;7.97;5.75;;;2.80;83.50;;;;;;5032083;28;20022;-69
2021/03/05 08:40:35;;;;;;;9.45;2.97;;;2.80;83.30;;;;;;5036197;28;20025;-70
2021/03/05 08:43:09;;;;;;;9.23;3.00;;;2.90;82.70;;;;;;5051383;28;20021;-69
2021/03/05 08:45:50;;;;;;;8.32;3.40;;;3.00;82.60;;;;;;5052148;28;20021;-69
2021/03/05 08:48:32;;;;;;;81.05;73.35;;;3.10;82.20;;;;;;5060824;28;20115;-69
2021/03/05 08:51:03;;;;;;;;;;;3.20;80.90;;;;;;5048969;28;20045;-70
2021/03/05 08:53:29;;;;;;;14.57;12.30;;;3.30;78.10;;;;;;5035277;28;19927;-71
2021/03/05 08:55:54;;;;;;;20.85;17.65;;;3.30;77.50;;;;;;5046845;28;20029;-71
2021/03/05 08:58:21;;;;;;;9.45;2.85;;;3.30;76.30;;;;;;5054598;28;20078;-69
2021/03/05 09:00:46;;;;;;;5.07;1.65;;;3.30;75.00;;;;;;5049404;28;20026;-69
2021/03/05 09:03:17;;;;;;;9.25;2.25;;;3.30;74.20;;;;;;5030535;28;20033;-71
2021/03/05 09:05:44;;;;;;;9.95;5.10;;;3.40;75.00;;;;;;5054965;28;20063;-71
2021/03/05 09:08:11;;;;;;;6.20;4.32;;;3.40;75.00;;;;;;5054108;28;20044;-72
2021/03/05 09:10:58;;;;;;;7.57;2.30;;;3.50;73.20;;;;;;5036906;28;20422;-72
2021/03/05 09:13:32;;;;;;;6.70;4.35;;;3.50;73.50;;;;;;5045001;28;20091;-72
2021/03/05 09:16:00;;;;;;;8.90;2.20;;;3.50;73.50;;;;;;5035291;28;20478;-72
2021/03/05 09:18:28;;;;;;;4.78;1.80;;;3.60;73.60;;;;;;5016702;28;20037;-70
2021/03/05 09:21:00;;;;;;;12.20;9.05;;;3.60;73.10;;;;;;5035110;28;20040;-70
2021/03/05 09:23:40;;;;;;;8.02;3.30;;;3.70;72.20;;;;;;5035097;28;20024;-71
2021/03/05 09:26:08;;;;;;;5.57;2.17;;;3.70;71.30;;;;;;5035458;28;20025;-70
2021/03/05 09:28:45;;;;;;;8.45;3.65;;;3.80;72.00;;;;;;5017253;28;20045;-69
2021/03/05 09:31:14;;;;;;;10.93;3.97;;;3.80;70.40;;;;;;5034718;28;20043;-71
2021/03/05 09:33:41;;;;;;;2.45;1.42;;;3.80;69.20;;;;;;5034373;28;20508;-71
2021/03/05 09:36:13;;;;;;;6.53;2.20;;;3.80;67.20;;;;;;5036002;28;20057;-71
2021/03/05 09:38:42;;;;;;;5.03;1.83;;;3.90;67.40;;;;;;5039921;28;20068;-72
2021/03/05 09:41:13;;;;;;;5.78;2.30;;;3.90;66.80;;;;;;5051139;28;20446;-70
2021/03/05 09:43:39;;;;;;;4.13;1.77;;;4.00;67.00;;;;;;5054741;28;20100;-73
2021/03/05 09:46:22;;;;;;;23.83;17.92;;;4.00;66.30;;;;;;5052220;28;20104;-71
2021/03/05 09:48:48;;;;;;;3.42;1.60;;;4.10;64.80;;;;;;5064573;28;20009;-72
2021/03/05 09:51:14;;;;;;;2.60;1.40;;;4.10;63.30;;;;;;5074348;28;20024;-71
2021/03/05 09:53:50;;;;;;;3.63;2.13;;;4.20;61.40;;;;;;5056601;28;20053;-69
2021/03/05 09:56:16;;;;;;;6.68;2.13;;;4.20;62.70;;;;;;5053954;28;20083;-69
2021/03/05 09:59:00;;;;;;;6.03;1.90;;;4.30;62.80;;;;;;5053648;28;20021;-69
2021/03/05 10:01:28;;;;;;;7.63;2.33;;;4.30;61.50;;;;;;5044597;28;20025;-69
2021/03/05 10:03:55;;;;;;;6.72;1.50;;;4.40;60.90;;;;;;5034426;28;20025;-69
2021/03/05 10:06:20;;;;;;;2.83;1.45;;;4.50;62.50;;;;;;5033927;28;20057;-69
2021/03/05 10:08:46;;;;;;;5.32;1.90;;;4.60;62.60;;;;;;5033647;28;20095;-70
2021/03/05 10:11:13;;;;;;;5.25;2.58;;;4.60;62.70;;;;;;5033876;28;20029;-70
2021/03/05 10:13:47;;;;;;;3.17;1.60;;;4.70;63.50;;;;;;5034092;28;20033;-70
2021/03/05 10:16:15;;;;;;;5.13;2.95;;;4.80;61.80;;;;;;5034909;28;20108;-69
2021/03/05 10:18:41;;;;;;;5.20;1.48;;;4.80;57.60;;;;;;5034215;28;20017;-69
2021/03/05 10:21:08;;;;;;;6.15;2.30;;;4.90;55.60;;;;;;5034856;28;20028;-69
2021/03/05 10:23:35;;;;;;;5.97;1.35;;;4.90;55.40;;;;;;5033957;28;20063;-70
2021/03/05 10:26:01;;;;;;;3.17;1.20;;;4.90;55.10;;;;;;5033987;28;20105;-70
2021/03/05 10:28:27;;;;;;;5.75;1.90;;;4.90;55.50;;;;;;5015571;28;20112;-68
2021/03/05 10:30:53;;;;;;;3.13;1.23;;;5.00;54.10;;;;;;5033738;28;20486;-69
2021/03/05 10:33:42;;;;;;;2.50;1.13;;;5.00;54.30;;;;;;5015984;28;20021;-68
2021/03/05 10:36:10;;;;;;;1.95;1.05;;;5.10;53.30;;;;;;5034025;28;20033;-70
2021/03/05 10:38:36;;;;;;;3.03;1.27;;;5.10;51.50;;;;;;5033931;28;20105;-69
2021/03/05 10:41:03;;;;;;;3.78;1.20;;;5.10;50.00;;;;;;5016048;28;20033;-66
2021/03/05 10:43:28;;;;;;;2.85;1.10;;;5.20;51.40;;;;;;5032901;28;20026;-69
2021/03/05 10:45:54;;;;;;;2.88;1.20;;;5.20;49.90;;;;;;5016901;28;20051;-67
2021/03/05 10:48:20;;;;;;;5.20;1.55;;;5.20;49.80;;;;;;5043260;28;20077;-67
2021/03/05 10:50:45;;;;;;;3.20;1.23;;;5.20;50.60;;;;;;5051046;28;20381;-69
2021/03/05 10:53:11;;;;;;;6.05;2.55;;;5.30;51.00;;;;;;5035111;28;20041;-68
2021/03/05 10:55:37;;;;;;;2.90;1.20;;;5.40;51.60;;;;;;5018871;28;20029;-67
2021/03/05 10:58:03;;;;;;;3.65;1.30;;;5.50;49.50;;;;;;5033700;28;20039;-67
2021/03/05 11:00:29;;;;;;;3.95;1.00;;;5.50;49.30;;;;;;5033153;28;20512;-67
2021/03/05 11:02:54;;;;;;;3.25;1.13;;;5.50;48.30;;;;;;5032848;28;20025;-68
2021/03/05 11:05:20;;;;;;;5.07;1.20;;;5.60;48.60;;;;;;5032892;28;20029;-69
2021/03/05 11:07:46;;;;;;;6.10;2.10;;;5.60;43.10;;;;;;5046231;28;20033;-67
2021/03/05 11:10:12;;;;;;;2.63;1.00;;;5.60;42.50;;;;;;5051419;28;20428;-74
2021/03/05 11:12:38;;;;;;;1.20;0.88;;;5.60;45.30;;;;;;5053175;28;20025;-68
2021/03/05 11:15:04;;;;;;;1.95;1.30;;;5.60;45.90;;;;;;5035168;28;20380;-67
2021/03/05 11:17:30;;;;;;;1.85;1.02;;;5.70;43.70;;;;;;5025943;28;20021;-68
2021/03/05 11:19:57;;;;;;;2.13;1.10;;;5.70;43.90;;;;;;5034057;28;20053;-67
2021/03/05 11:22:23;;;;;;;4.65;1.35;;;5.60;42.20;;;;;;5033447;28;20047;-68
2021/03/05 11:24:49;;;;;;;2.55;1.20;;;5.60;42.80;;;;;;5052245;28;20021;-69
2021/03/05 11:27:15;;;;;;;2.65;0.85;;;5.60;43.80;;;;;;5052336;28;20477;-69
2021/03/05 11:29:40;;;;;;;1.70;1.23;;;5.60;43.00;;;;;;5052909;28;20021;-68
2021/03/05 11:32:07;;;;;;;2.97;1.13;;;5.60;44.10;;;;;;5052215;28;20025;-69
2021/03/05 11:34:33;;;;;;;3.45;1.60;;;5.70;42.60;;;;;;5032857;28;20033;-71
2021/03/05 11:36:58;;;;;;;2.15;1.27;;;5.80;43.70;;;;;;5052326;28;20021;-72
2021/03/05 11:39:24;;;;;;;1.85;1.30;;;5.80;43.90;;;;;;5051986;28;20029;-69
2021/03/05 11:41:49;;;;;;;2.38;1.13;;;5.80;44.40;;;;;;5052695;28;20373;-69
2021/03/05 11:44:16;;;;;;;2.22;1.02;;;5.80;44.10;;;;;;5052248;28;20492;-71
2021/03/05 11:46:42;;;;;;;1.65;1.00;;;5.90;44.30;;;;;;5051760;28;20116;-70
2021/03/05 11:49:07;;;;;;;3.53;1.27;;;5.90;44.20;;;;;;5046468;28;20112;-72
2021/03/05 11:51:33;;;;;;;5.55;1.30;;;6.00;43.20;;;;;;5051251;28;20059;-72
2021/03/05 11:53:58;;;;;;;4.32;1.13;;;6.10;43.00;;;;;;5051033;28;20053;-71
2021/03/05 11:56:24;;;;;;;2.33;1.15;;;6.10;43.50;;;;;;5051648;28;20025;-67
2021/03/05 11:58:49;;;;;;;1.42;1.00;;;6.20;44.10;;;;;;5051963;28;20573;-70
2021/03/05 12:01:15;;;;;;;1.55;1.17;;;6.30;44.50;;;;;;5051642;28;20025;-69
2021/03/05 12:03:41;;;;;;;3.33;0.90;;;6.30;44.40;;;;;;5043518;28;20032;-68
2021/03/05 12:06:06;;;;;;;1.83;1.50;;;6.30;43.50;;;;;;5040644;28;20428;-70
2021/03/05 12:08:32;;;;;;;2.85;1.15;;;6.30;43.40;;;;;;5035101;28;20037;-70
2021/03/05 12:10:58;;;;;;;1.90;0.90;;;6.30;40.30;;;;;;5015133;28;20060;-69
2021/03/05 12:13:23;;;;;;;1.60;0.80;;;6.30;41.30;;;;;;5036159;28;20033;-68
2021/03/05 12:15:49;;;;;;;1.27;0.90;;;6.30;42.10;;;;;;5039652;28;20159;-66
2021/03/05 12:18:15;;;;;;;2.00;1.17;;;6.30;42.80;;;;;;5016118;28;20462;-70
2021/03/05 12:20:40;;;;;;;2.65;1.13;;;6.30;42.60;;;;;;5051767;28;20021;-66
2021/03/05 12:23:06;;;;;;;2.00;1.27;;;6.40;42.70;;;;;;5037954;28;20028;-68
2021/03/05 12:25:32;;;;;;;3.30;1.00;;;6.50;43.10;;;;;;5038031;28;20095;-70
2021/03/05 12:27:58;;;;;;;3.50;1.10;;;6.50;43.30;;;;;;5055582;28;20061;-69
2021/03/05 12:30:24;;;;;;;1.33;0.80;;;6.60;42.80;;;;;;5037970;28;20037;-68
2021/03/05 12:32:50;;;;;;;2.58;0.90;;;6.60;43.60;;;;;;5054322;28;20048;-68
2021/03/05 12:35:16;;;;;;;0.75;0.73;;;6.60;44.00;;;;;;5055324;28;20025;-70
2021/03/05 12:37:43;;;;;;;4.05;2.10;;;6.70;44.50;;;;;;5055985;28;20094;-69
2021/03/05 12:40:12;;;;;;;2.72;1.40;;;6.70;44.10;;;;;;5038587;28;20481;-67
2021/03/05 12:42:38;;;;;;;1.00;0.90;;;6.80;43.70;;;;;;5055517;28;20021;-69
2021/03/05 12:45:05;;;;;;;2.70;0.93;;;6.70;43.00;;;;;;5055840;28;20035;-68
2021/03/05 12:47:32;;;;;;;1.60;1.00;;;6.60;44.10;;;;;;5053600;28;20041;-72